Aeroporto :
LOGIN :

Iscrizione | Disclaimer

   EN    FR    IT 

 










Sommario :    VFR   VFR Marginale   IFR   IFR Intensivo   IFR Molto Intensivo
Visibilità : 
Base nubi : 
>= 8 km
>= 3000ft
5 / 8 km
1000 / 3000 ft
1500m / 5 km
500 / 1000 ft
800 / 1500m
200 / 500 ft
< 800m
< 200 ft
Simboli :   Temporali  Nebbia  Neve Forte  Precipitazioni Forti  Vento > 20 kt
SIGMETs :   Varie  Temporali  Ghiacco  Turbolenza  Onda orograficha  Ceneri Vulcaniche







- Altitudine del aeroporto : 1910 ft
- Codice IATA : RDZ
- Carte del aeroporto


LFCR - Rodez

ULTIMO METAR :
  • 260930Z AUTO 12018KT CAVOK 31/12 Q1022 TEMPO 13020G30KT

METARs OBSOLETI :
  • 260900Z AUTO 12018KT CAVOK 30/11 Q1022 TEMPO 13020G30KT
  • 260830Z AUTO 12018KT CAVOK 29/10 Q1022 TEMPO 13020G30KT
  • 260800Z AUTO 12017KT CAVOK 29/11 Q1022 TEMPO 13020G30KT
  • 260730Z AUTO 12018KT CAVOK 28/11 Q1022 TEMPO 13020G30KT
  • 260700Z AUTO 12018KT CAVOK 27/10 Q1022 TEMPO 13020G30KT

TAF TAF LFCR
Valido dal 26 a 06 ore il 27 a 06 ore UTC


260500Z 2606/2706 12015KT CAVOK
TEMPO 2606/2619 13020G30KT
BECMG 2620/2622 13012KT
Nessun NOTAM noto per questo aeroporto.
2 SIGMETs conosciuti per la FIR Bordeaux (LFBB) :
 
Forte onda orograficha
LFBB SIGMET 3 VALID 261000/261400 LFPW
LFBB BORDEAUX FIR/UIR SEV MTW FCST WI N4215 E00200 - N4300 W00115 - N4315 W00100 - N4245 E00200 - N4215 E00200 SFC/FL200 STNR NC=
Forte onda orograficha
LFBB SIGMET 2 VALID 260600/261000 LFPW
LFBB BORDEAUX FIR/UIR SEV MTW FCST WI N4215 E00200 - N4245 W00045 - N4315 W00030 - N4300 E00145 - N4215 E00200 SFC/FL180 STNR NC=



MetMap, La meteo Aeronautica in un colpo d'occhio ! - Copyright ORBIFLY Dicembre 2007 - Disclaimer

ORBIFLY MET'MAP TEAM :

Programmazione e sviluppo : Alexandra Zaïnal
Concezione e sviluppo : Baudouin d'Aumeries
Co-Programmazione e sviluppo : Marc-Olivier Méhu
Supporto tecnico e logistico : Manuel Goepfert
Aiuto per la traduzione : Arnaldo La Scala

Contatto : metmap@orbifly.com




FONTI E CREDITI :

   NOAA